Time;durP1;ratioP1;P1;durP2;ratioP2;P2;SDS_P1;SDS_P2;PMS_P1;PMS_P2;Temp;Humidity;BMP_temperature;BMP_pressure;BME280_temperature;BME280_humidity;BME280_pressure;Samples;Min_cycle;Max_cycle;Signal;HPM_P1;HPM_P2
2022/11/10 05:01:08;;;;;;;32.70;30.30;;;10.30;99.90;;;;;;6061327;23;20460;-74
2022/11/10 05:03:36;;;;;;;32.87;30.60;;;10.30;99.90;;;;;;4925062;29;20480;-74
2022/11/10 05:06:03;;;;;;;31.90;29.90;;;10.20;99.90;;;;;;4930957;29;20927;-74
2022/11/10 05:08:30;;;;;;;32.33;30.17;;;10.10;99.90;;;;;;4931124;29;20488;-75
2022/11/10 05:10:57;;;;;;;34.67;32.17;;;10.10;99.90;;;;;;4931929;29;20449;-74
2022/11/10 05:13:23;;;;;;;34.13;31.60;;;10.00;99.90;;;;;;4931906;29;20453;-75
2022/11/10 05:15:51;;;;;;;34.40;31.57;;;10.00;99.90;;;;;;4931073;29;20453;-75
2022/11/10 05:18:18;;;;;;;33.87;31.70;;;10.00;99.90;;;;;;4931041;29;20453;-75
2022/11/10 05:20:46;;;;;;;37.17;33.50;;;10.00;99.90;;;;;;4930973;29;20454;-74
2022/11/10 05:25:57;;;;;;;33.70;31.20;;;9.90;99.90;;;;;;4931046;29;20803;-75
2022/11/10 05:28:23;;;;;;;32.93;30.80;;;9.90;99.90;;;;;;4935440;29;20981;-76
2022/11/10 05:30:50;;;;;;;35.03;32.60;;;9.90;99.90;;;;;;4950301;28;20818;-76
2022/11/10 05:33:17;;;;;;;35.67;33.13;;;9.80;99.90;;;;;;4953692;29;20448;-77
2022/11/10 05:35:45;;;;;;;35.00;32.53;;;9.80;99.90;;;;;;4954099;29;20962;-74
2022/11/10 05:38:12;;;;;;;33.80;31.53;;;9.80;99.90;;;;;;4954155;29;20456;-74
2022/11/10 05:40:39;;;;;;;34.97;32.37;;;9.70;99.90;;;;;;4954026;28;20456;-74
2022/11/10 05:43:05;;;;;;;33.80;31.50;;;9.60;99.90;;;;;;4953478;29;20556;-76
2022/11/10 05:45:32;;;;;;;35.77;33.17;;;9.60;99.90;;;;;;4953780;29;20466;-76
2022/11/10 05:47:59;;;;;;;35.07;32.50;;;9.70;99.90;;;;;;4953656;29;20459;-74
2022/11/10 05:50:26;;;;;;;34.57;32.07;;;9.70;99.90;;;;;;4953261;29;20494;-74
2022/11/10 05:52:55;;;;;;;34.83;32.53;;;9.60;99.90;;;;;;4953188;29;20459;-74
2022/11/10 05:55:24;;;;;;;34.90;32.57;;;9.60;99.90;;;;;;4953207;29;20563;-75
2022/11/10 05:57:52;;;;;;;36.70;33.67;;;9.50;99.90;;;;;;4953071;29;20449;-74
2022/11/10 06:00:21;;;;;;;37.70;34.73;;;9.50;99.90;;;;;;4953194;29;20552;-75
2022/11/10 06:02:57;;;;;;;36.50;33.90;;;9.50;99.90;;;;;;4938651;29;20477;-81
2022/11/10 06:05:24;;;;;;;36.53;33.93;;;9.50;99.90;;;;;;4918753;29;20465;-80
2022/11/10 06:07:51;;;;;;;35.87;33.23;;;9.50;99.90;;;;;;4911659;29;20472;-79
2022/11/10 06:10:19;;;;;;;35.93;32.63;;;9.50;99.90;;;;;;4915001;29;20489;-80
2022/11/10 06:12:46;;;;;;;36.93;33.90;;;9.40;99.90;;;;;;4915191;29;20454;-79
2022/11/10 06:15:14;;;;;;;35.33;32.80;;;9.50;99.90;;;;;;4915441;29;20457;-80
2022/11/10 06:17:41;;;;;;;35.13;32.43;;;9.30;99.90;;;;;;4915280;29;20458;-79
2022/11/10 06:20:09;;;;;;;35.80;32.60;;;9.30;99.90;;;;;;4915011;29;21059;-79
2022/11/10 06:22:36;;;;;;;34.73;32.33;;;9.30;99.90;;;;;;4914829;29;20727;-79
2022/11/10 06:25:03;;;;;;;35.20;32.70;;;9.30;99.90;;;;;;4914991;29;20454;-79
2022/11/10 06:27:31;;;;;;;34.90;32.60;;;9.30;99.90;;;;;;4915486;29;20450;-79
2022/11/10 06:29:58;;;;;;;35.80;33.20;;;9.30;99.90;;;;;;4915891;29;20845;-79
2022/11/10 06:32:25;;;;;;;35.87;33.03;;;9.30;99.90;;;;;;4913823;29;20945;-78
2022/11/10 06:34:51;;;;;;;36.73;34.03;;;9.30;99.90;;;;;;4914826;29;20460;-79
2022/11/10 06:37:18;;;;;;;35.60;33.30;;;9.30;99.90;;;;;;4914483;29;20454;-79
2022/11/10 06:39:45;;;;;;;35.63;32.23;;;9.40;99.90;;;;;;4914774;29;20457;-78
2022/11/10 06:42:12;;;;;;;35.37;32.07;;;9.40;99.90;;;;;;4914123;29;20478;-80
2022/11/10 06:44:40;;;;;;;33.63;31.33;;;9.30;99.90;;;;;;4914471;29;20458;-80
2022/11/10 06:47:06;;;;;;;35.50;32.50;;;9.40;99.90;;;;;;4915113;29;20458;-79
2022/11/10 06:49:33;;;;;;;35.67;32.50;;;9.40;99.90;;;;;;4914815;29;20497;-79
2022/11/10 06:52:00;;;;;;;36.83;34.30;;;9.40;99.90;;;;;;4916579;29;20450;-77
2022/11/10 06:54:27;;;;;;;36.27;33.40;;;9.50;99.90;;;;;;4913324;29;20815;-78
2022/11/10 06:56:53;;;;;;;38.50;35.53;;;9.50;99.90;;;;;;4914427;29;20466;-78
2022/11/10 06:59:20;;;;;;;40.03;36.63;;;9.70;99.90;;;;;;4914119;29;20465;-79
2022/11/10 07:01:49;;;;;;;40.77;37.50;;;10.00;99.90;;;;;;4914354;29;20474;-78
2022/11/10 07:04:16;;;;;;;41.00;37.93;;;10.20;99.90;;;;;;4914732;29;20542;-78
2022/11/10 07:06:42;;;;;;;42.40;38.40;;;10.50;99.90;;;;;;4914991;29;20458;-78
2022/11/10 07:09:09;;;;;;;40.33;37.37;;;10.60;99.90;;;;;;4916106;29;20446;-82
2022/11/10 07:11:36;;;;;;;35.73;32.97;;;10.70;99.90;;;;;;4917044;29;20454;-84
2022/11/10 07:14:03;;;;;;;34.23;31.40;;;10.80;99.90;;;;;;4920265;29;20450;-85
2022/11/10 07:16:30;;;;;;;34.20;31.70;;;11.00;99.90;;;;;;4919883;29;20454;-85
2022/11/10 07:18:58;;;;;;;33.63;30.67;;;11.20;99.90;;;;;;4914772;29;20461;-84
2022/11/10 07:21:25;;;;;;;31.90;29.20;;;11.50;99.90;;;;;;4914022;29;20763;-83
2022/11/10 07:23:51;;;;;;;29.27;26.80;;;11.80;99.90;;;;;;4913542;29;20956;-82
2022/11/10 07:26:18;;;;;;;27.10;25.10;;;11.90;99.90;;;;;;4913584;29;20451;-82
2022/11/10 07:28:45;;;;;;;24.27;22.57;;;12.10;99.90;;;;;;4913720;29;20772;-83
2022/11/10 07:31:12;;;;;;;24.87;23.00;;;12.20;99.90;;;;;;4913648;29;20528;-83
2022/11/10 07:33:38;;;;;;;23.53;21.73;;;12.30;99.90;;;;;;4913344;29;20461;-81
2022/11/10 07:36:07;;;;;;;22.70;21.03;;;12.60;99.90;;;;;;4913261;29;20457;-83
2022/11/10 07:38:34;;;;;;;22.97;21.37;;;12.80;99.90;;;;;;4913355;29;20454;-81
2022/11/10 07:41:01;;;;;;;20.70;19.30;;;12.90;99.90;;;;;;4913534;29;20459;-78
2022/11/10 07:43:27;;;;;;;19.17;17.73;;;13.10;99.90;;;;;;4913341;29;20454;-81
2022/11/10 07:45:54;;;;;;;21.03;19.63;;;13.30;99.90;;;;;;4913027;29;20450;-78
2022/11/10 07:48:21;;;;;;;20.03;18.70;;;13.40;99.90;;;;;;4911226;29;20660;-78
2022/11/10 07:50:48;;;;;;;20.30;19.13;;;13.40;99.90;;;;;;4912996;29;20490;-78
2022/11/10 07:53:18;;;;;;;20.97;19.47;;;13.60;99.90;;;;;;4913249;29;20978;-77
2022/11/10 07:55:46;;;;;;;21.63;20.03;;;13.80;99.90;;;;;;4913182;29;20462;-78
2022/11/10 07:58:15;;;;;;;21.90;20.60;;;13.90;99.90;;;;;;4913426;29;20482;-80
2022/11/10 08:00:43;;;;;;;21.53;19.97;;;13.90;99.90;;;;;;4913558;29;20470;-80
2022/11/10 08:03:12;;;;;;;23.03;21.30;;;13.60;99.90;;;;;;4913327;29;20482;-79
2022/11/10 08:05:39;;;;;;;20.73;18.93;;;13.40;99.90;;;;;;4913053;29;20466;-78
2022/11/10 08:08:07;;;;;;;19.47;17.83;;;13.60;99.90;;;;;;4913126;29;20697;-79
2022/11/10 08:10:35;;;;;;;20.00;18.60;;;14.00;99.90;;;;;;4912561;29;21168;-77
2022/11/10 08:13:03;;;;;;;19.93;18.60;;;14.40;99.90;;;;;;4912852;29;20482;-76
2022/11/10 08:15:32;;;;;;;20.53;18.90;;;15.00;99.90;;;;;;4912930;29;20458;-78
2022/11/10 08:17:59;;;;;;;19.50;18.20;;;15.50;99.90;;;;;;4913081;29;20454;-79
2022/11/10 08:20:26;;;;;;;20.70;19.40;;;15.40;99.90;;;;;;4911358;29;20553;-76
2022/11/10 08:22:57;;;;;;;18.87;17.67;;;15.20;99.90;;;;;;4912556;29;20458;-76
2022/11/10 08:25:24;;;;;;;18.47;17.23;;;15.30;99.90;;;;;;4912671;29;20545;-76
2022/11/10 08:27:58;;;;;;;18.57;17.57;;;15.30;99.90;;;;;;4912403;29;20655;-77
2022/11/10 08:30:26;;;;;;;17.67;16.67;;;;;;;;;;4912435;29;20790;-77
2022/11/10 08:32:55;;;;;;;18.57;17.37;;;15.90;99.90;;;;;;4911742;29;20542;-78
2022/11/10 08:35:23;;;;;;;19.93;18.23;;;16.20;99.90;;;;;;4910919;29;20461;-79
2022/11/10 08:37:50;;;;;;;21.70;20.00;;;16.40;99.90;;;;;;4912307;29;20713;-79
2022/11/10 08:40:17;;;;;;;19.43;17.80;;;16.60;99.90;;;;;;4912415;29;20447;-79
2022/11/10 08:42:44;;;;;;;18.93;17.57;;;16.60;99.90;;;;;;4912743;29;20455;-78
2022/11/10 08:45:12;;;;;;;18.37;16.97;;;16.80;99.90;;;;;;4912581;29;20458;-79
2022/11/10 08:47:39;;;;;;;15.43;14.33;;;16.60;99.90;;;;;;4912289;29;20442;-79
2022/11/10 08:50:07;;;;;;;15.70;14.80;;;16.80;99.90;;;;;;4912112;29;20486;-80
2022/11/10 08:52:34;;;;;;;17.17;16.07;;;16.70;99.90;;;;;;4912242;29;20491;-80
2022/11/10 08:55:01;;;;;;;17.40;16.40;;;16.90;99.90;;;;;;4912459;29;20972;-80
2022/11/10 08:57:27;;;;;;;20.00;18.60;;;17.20;99.90;;;;;;4912908;29;20454;-79
2022/11/10 08:59:54;;;;;;;23.00;20.90;;;16.90;99.90;;;;;;4912199;29;20454;-79
2022/11/10 09:02:22;;;;;;;16.37;15.37;;;16.60;99.90;;;;;;4912155;29;20640;-81
2022/11/10 09:04:49;;;;;;;15.47;14.67;;;16.70;99.90;;;;;;4911863;29;21033;-79
2022/11/10 09:07:15;;;;;;;17.07;16.00;;;16.70;99.90;;;;;;4911450;29;20454;-79
2022/11/10 09:09:42;;;;;;;16.20;15.30;;;16.40;99.90;;;;;;4912245;29;20824;-79
2022/11/10 09:12:09;;;;;;;18.37;16.90;;;16.40;99.90;;;;;;4912063;29;20961;-79
2022/11/10 09:14:36;;;;;;;16.60;15.70;;;16.50;99.90;;;;;;4911928;29;20454;-78
2022/11/10 09:17:02;;;;;;;17.03;15.70;;;16.30;99.90;;;;;;4911676;29;20493;-79
2022/11/10 09:19:30;;;;;;;15.60;14.50;;;16.70;99.90;;;;;;4911799;29;20458;-78
2022/11/10 09:21:57;;;;;;;15.00;14.30;;;16.60;99.90;;;;;;4912143;29;20450;-79
2022/11/10 09:24:24;;;;;;;15.73;14.70;;;16.80;99.90;;;;;;4912088;29;20937;-79
2022/11/10 09:26:51;;;;;;;15.53;14.73;;;16.80;99.90;;;;;;4911994;29;20481;-79
2022/11/10 09:29:18;;;;;;;15.83;14.93;;;16.90;99.90;;;;;;4912169;29;20511;-78
2022/11/10 09:31:44;;;;;;;15.00;14.30;;;17.00;99.90;;;;;;4911773;29;21034;-79
2022/11/10 09:34:11;;;;;;;16.20;15.00;;;16.90;99.90;;;;;;4912319;29;20514;-79
2022/11/10 09:36:40;;;;;;;15.70;14.87;;;17.00;99.90;;;;;;4912141;29;20808;-79
2022/11/10 09:39:07;;;;;;;14.77;13.83;;;17.00;99.90;;;;;;4911890;29;20518;-80
2022/11/10 09:41:38;;;;;;;15.40;14.40;;;17.20;99.90;;;;;;4911800;29;20454;-79
2022/11/10 09:44:10;;;;;;;15.00;14.20;;;17.00;99.90;;;;;;4912215;29;20497;-79
2022/11/10 09:46:41;;;;;;;15.03;14.27;;;17.00;99.90;;;;;;4912232;29;20482;-80
2022/11/10 09:49:18;;;;;;;14.27;13.53;;;17.00;99.90;;;;;;4911808;29;20480;-80
2022/11/10 09:51:47;;;;;;;14.73;14.10;;;17.00;99.90;;;;;;4911831;29;20908;-79
2022/11/10 09:54:26;;;;;;;16.40;15.60;;;17.20;99.90;;;;;;4912203;29;20835;-79
2022/11/10 09:56:55;;;;;;;13.87;13.30;;;17.30;99.90;;;;;;4911837;29;20830;-80
2022/11/10 09:59:27;;;;;;;14.40;13.70;;;17.40;99.90;;;;;;4911655;29;20461;-78
2022/11/10 10:01:59;;;;;;;14.07;13.40;;;17.80;99.90;;;;;;4911381;29;20486;-80
2022/11/10 10:04:42;;;;;;;13.90;13.20;;;18.10;99.90;;;;;;4911712;29;20458;-80
2022/11/10 10:07:15;;;;;;;16.03;15.03;;;18.70;99.90;;;;;;4911994;29;20456;-79
2022/11/10 10:09:50;;;;;;;14.47;13.70;;;18.60;99.90;;;;;;4912410;29;20450;-79
2022/11/10 10:12:31;;;;;;;14.80;14.00;;;18.70;99.90;;;;;;4912019;29;20497;-80
2022/11/10 10:15:12;;;;;;;16.60;15.63;;;19.40;99.90;;;;;;4912439;29;20447;-79
2022/11/10 10:17:48;;;;;;;15.73;14.80;;;20.00;99.90;;;;;;4913848;29;20450;-79
2022/11/10 10:20:22;;;;;;;14.20;13.47;;;19.90;99.90;;;;;;4915320;29;20450;-79
2022/11/10 10:23:02;;;;;;;14.13;13.50;;;19.80;99.90;;;;;;4915101;29;20453;-80
2022/11/10 10:25:31;;;;;;;14.87;14.00;;;19.40;99.90;;;;;;4915450;29;20830;-80
2022/11/10 10:28:01;;;;;;;15.20;14.00;;;19.70;99.90;;;;;;4915979;29;20461;-80
2022/11/10 10:30:28;;;;;;;15.53;14.73;;;20.20;99.90;;;;;;4915430;29;20482;-80
2022/11/10 10:33:00;;;;;;;15.43;14.33;;;21.40;99.90;;;;;;4915089;29;20461;-80
2022/11/10 10:35:28;;;;;;;14.40;13.40;;;21.60;99.20;;;;;;4915363;29;20963;-82
2022/11/10 10:37:57;;;;;;;15.77;14.50;;;20.70;99.90;;;;;;4915250;29;20446;-79
2022/11/10 10:40:25;;;;;;;13.90;13.20;;;19.50;99.90;;;;;;4914604;29;20450;-79
2022/11/10 10:42:51;;;;;;;13.67;12.77;;;19.60;99.90;;;;;;4914430;29;20454;-80
2022/11/10 10:45:21;;;;;;;14.40;13.40;;;19.80;99.90;;;;;;4914398;29;20450;-79
2022/11/10 10:47:50;;;;;;;14.63;13.60;;;19.80;99.90;;;;;;4914371;29;20458;-79
2022/11/10 10:50:29;;;;;;;14.33;13.73;;;20.50;99.90;;;;;;4914342;29;20466;-83
2022/11/10 10:53:14;;;;;;;13.93;13.23;;;21.20;98.30;;;;;;4914724;29;20830;-79
2022/11/10 10:55:47;;;;;;;13.83;13.13;;;21.20;96.70;;;;;;4914802;29;20450;-80
2022/11/10 10:58:23;;;;;;;12.60;12.00;;;21.40;96.10;;;;;;4914504;29;20454;-79
2022/11/10 11:00:52;;;;;;;13.47;12.57;;;23.00;93.20;;;;;;4914240;29;20737;-79
2022/11/10 11:03:27;;;;;;;14.07;13.37;;;24.50;87.90;;;;;;4914169;29;20549;-79
2022/11/10 11:06:03;;;;;;;13.90;13.30;;;23.90;85.50;;;;;;4914270;29;20828;-79
2022/11/10 11:08:31;;;;;;;13.30;12.67;;;22.90;86.20;;;;;;4914222;29;20450;-80
2022/11/10 11:11:07;;;;;;;13.20;12.50;;;22.40;84.70;;;;;;4914668;29;20458;-78
2022/11/10 11:13:34;;;;;;;13.93;13.00;;;21.50;88.40;;;;;;4914080;29;20456;-79
2022/11/10 11:16:02;;;;;;;12.47;11.97;;;22.00;87.80;;;;;;4913797;29;20461;-79
2022/11/10 11:18:31;;;;;;;13.53;12.83;;;22.80;83.70;;;;;;4914130;29;20459;-82
2022/11/10 11:21:05;;;;;;;13.07;12.33;;;24.00;82.60;;;;;;4914119;29;20490;-82
2022/11/10 11:23:47;;;;;;;13.80;13.10;;;24.40;78.20;;;;;;4913871;29;20751;-79
2022/11/10 11:26:21;;;;;;;14.33;13.60;;;24.80;79.10;;;;;;4913565;29;20450;-80
2022/11/10 11:28:58;;;;;;;13.47;12.70;;;25.60;74.80;;;;;;4912852;29;20458;-77
2022/11/10 11:31:36;;;;;;;13.10;12.23;;;23.70;74.50;;;;;;4913860;29;20925;-79
2022/11/10 11:34:08;;;;;;;12.73;11.87;;;23.50;75.40;;;;;;4913727;29;20454;-78
2022/11/10 11:36:41;;;;;;;12.23;11.73;;;23.30;75.60;;;;;;4913677;29;20533;-78
2022/11/10 11:39:27;;;;;;;12.70;12.10;;;23.40;77.50;;;;;;4913520;29;20454;-78
2022/11/10 11:42:02;;;;;;;13.17;12.57;;;24.90;73.80;;;;;;4913665;29;20490;-81
2022/11/10 11:44:44;;;;;;;12.30;11.80;;;25.10;70.30;;;;;;4913974;29;20457;-79
2022/11/10 11:47:22;;;;;;;12.83;12.20;;;23.00;73.40;;;;;;4913875;29;20446;-80
2022/11/10 11:50:04;;;;;;;11.97;11.37;;;22.10;77.50;;;;;;4913708;29;20446;-80
2022/11/10 11:52:36;;;;;;;11.50;11.00;;;21.50;79.90;;;;;;4913569;29;20450;-80
2022/11/10 11:55:18;;;;;;;11.80;11.00;;;20.30;81.90;;;;;;4913400;29;20924;-77
2022/11/10 11:58:01;;;;;;;11.33;10.73;;;19.90;84.30;;;;;;4913224;29;21047;-78
2022/11/10 12:00:31;;;;;;;13.10;12.30;;;20.90;83.70;;;;;;4913634;29;20885;-81
2022/11/10 12:03:30;;;;;;;12.10;11.50;;;22.10;77.60;;;;;;4913345;29;20486;-80
2022/11/10 12:06:09;;;;;;;11.80;11.23;;;21.20;78.70;;;;;;4901834;29;20468;-80
2022/11/10 12:08:43;;;;;;;11.50;10.90;;;20.50;81.60;;;;;;4912929;29;20821;-80
2022/11/10 12:11:18;;;;;;;12.60;11.80;;;19.20;86.30;;;;;;4912695;29;20496;-80
2022/11/10 12:13:56;;;;;;;11.87;11.17;;;18.60;90.50;;;;;;4912972;29;20818;-79
2022/11/10 12:16:26;;;;;;;12.83;11.93;;;18.80;90.30;;;;;;4912598;29;20963;-80
2022/11/10 12:19:01;;;;;;;10.33;9.93;;;18.00;93.10;;;;;;4912745;29;20446;-78
2022/11/10 12:21:36;;;;;;;12.30;11.70;;;17.90;93.70;;;;;;4912821;29;20852;-79
2022/11/10 12:24:20;;;;;;;11.40;10.50;;;18.10;93.80;;;;;;4912266;29;20454;-81
2022/11/10 12:26:54;;;;;;;10.80;10.20;;;18.10;94.00;;;;;;4912768;29;20457;-81
2022/11/10 12:29:30;;;;;;;11.30;10.60;;;18.50;93.70;;;;;;4912814;29;20830;-80
2022/11/10 12:32:03;;;;;;;12.23;11.37;;;18.00;94.30;;;;;;4913104;29;20475;-79
2022/11/10 12:34:36;;;;;;;11.70;10.77;;;18.30;95.10;;;;;;4912858;29;20454;-79
2022/11/10 12:37:06;;;;;;;10.70;10.20;;;18.80;94.20;;;;;;4912789;29;20936;-81
2022/11/10 12:39:41;;;;;;;11.10;10.60;;;18.90;93.50;;;;;;4913124;29;20526;-80
2022/11/10 12:42:14;;;;;;;11.40;10.80;;;18.90;93.50;;;;;;4912926;29;20486;-81
2022/11/10 12:44:55;;;;;;;10.87;10.47;;;19.60;92.60;;;;;;4912959;29;20941;-80
2022/11/10 12:47:26;;;;;;;10.93;10.53;;;19.80;91.70;;;;;;4912874;29;20510;-80
2022/11/10 12:50:01;;;;;;;12.10;11.37;;;19.50;91.80;;;;;;4912739;29;20454;-80
2022/11/10 12:52:35;;;;;;;12.07;11.27;;;18.90;92.60;;;;;;4913141;29;20461;-80
2022/11/10 12:55:02;;;;;;;12.17;11.47;;;17.90;93.90;;;;;;4912734;29;20450;-79
2022/11/10 12:57:32;;;;;;;12.03;11.43;;;17.40;95.70;;;;;;4912952;29;20512;-80
2022/11/10 13:00:03;;;;;;;11.00;10.40;;;16.90;96.10;;;;;;4912620;29;20466;-79
2022/11/10 13:02:34;;;;;;;10.90;10.20;;;16.80;97.20;;;;;;4912406;29;20500;-79
2022/11/10 13:05:24;;;;;;;10.30;9.50;;;16.70;97.00;;;;;;4912562;29;20462;-79
2022/11/10 13:08:04;;;;;;;10.60;10.20;;;16.50;97.60;;;;;;4912630;29;20546;-80
2022/11/10 13:10:31;;;;;;;9.00;8.70;;;16.40;97.50;;;;;;4912748;29;20513;-79
2022/11/10 13:13:01;;;;;;;10.90;10.40;;;16.30;97.80;;;;;;4912726;29;20450;-80
2022/11/10 13:15:48;;;;;;;11.93;10.90;;;16.30;98.10;;;;;;4912701;29;20461;-80
2022/11/10 13:18:41;;;;;;;11.17;10.60;;;16.40;98.30;;;;;;4912360;29;20466;-80
2022/11/10 13:21:07;;;;;;;12.43;11.03;;;16.60;98.40;;;;;;4911377;29;20874;-80
2022/11/10 13:24:20;;;;;;;11.00;10.60;;;16.70;98.00;;;;;;4912513;29;20477;-80
2022/11/10 13:26:51;;;;;;;12.33;11.73;;;16.80;98.20;;;;;;4912403;29;20457;-79
2022/11/10 13:29:30;;;;;;;14.40;10.40;;;16.70;98.30;;;;;;4912441;29;20521;-80
2022/11/10 13:31:58;;;;;;;11.57;10.73;;;16.70;98.60;;;;;;4912557;29;20826;-78
2022/11/10 13:34:33;;;;;;;12.60;11.70;;;16.60;98.10;;;;;;4913559;29;20558;-80
2022/11/10 13:37:00;;;;;;;11.10;10.53;;;16.50;98.30;;;;;;4913169;29;20457;-78
2022/11/10 13:39:31;;;;;;;10.73;10.33;;;16.30;98.40;;;;;;4912878;29;20454;-81
2022/11/10 13:42:16;;;;;;;11.47;10.90;;;16.20;98.90;;;;;;4913195;29;21106;-79
2022/11/10 13:44:46;;;;;;;12.70;11.70;;;16.20;99.10;;;;;;4917139;29;20450;-79
2022/11/10 13:47:39;;;;;;;10.10;9.40;;;16.10;98.50;;;;;;4914912;29;20469;-79
2022/11/10 13:50:29;;;;;;;10.20;9.70;;;16.10;98.90;;;;;;4912482;29;20454;-79
2022/11/10 13:53:14;;;;;;;11.57;11.07;;;16.00;99.30;;;;;;4915109;29;20448;-79
2022/11/10 13:55:59;;;;;;;11.10;10.70;;;16.10;99.80;;;;;;4916198;29;20455;-79
2022/11/10 13:58:29;;;;;;;11.20;10.60;;;16.20;99.90;;;;;;4916222;29;20454;-79
2022/11/10 14:01:29;;;;;;;11.63;11.23;;;16.30;99.90;;;;;;4915995;29;21010;-79
2022/11/10 14:04:00;;;;;;;11.50;11.07;;;16.40;99.20;;;;;;4897188;29;20455;-79
2022/11/10 14:06:37;;;;;;;10.43;9.97;;;16.30;98.70;;;;;;4897287;29;20511;-78
2022/11/10 14:09:11;;;;;;;10.53;10.10;;;16.30;97.90;;;;;;4896535;29;20446;-78
2022/11/10 14:11:42;;;;;;;11.70;10.93;;;16.30;97.60;;;;;;4896615;29;20972;-79
2022/11/10 14:14:13;;;;;;;11.77;11.03;;;16.10;97.20;;;;;;4896721;29;20451;-79
2022/11/10 14:16:42;;;;;;;12.33;11.90;;;16.20;97.80;;;;;;4896802;29;20447;-80
2022/11/10 14:19:24;;;;;;;11.87;11.00;;;16.20;98.30;;;;;;4896759;29;20868;-79
2022/11/10 14:21:55;;;;;;;12.40;11.60;;;16.20;98.20;;;;;;4896624;29;20497;-79
2022/11/10 14:24:27;;;;;;;12.20;11.73;;;16.20;98.50;;;;;;4896332;29;21075;-80
2022/11/10 14:26:58;;;;;;;11.30;10.43;;;16.20;98.40;;;;;;4896434;29;20949;-79
2022/11/10 14:29:33;;;;;;;12.30;11.30;;;16.10;98.30;;;;;;4896213;29;20454;-79
2022/11/10 14:32:02;;;;;;;11.20;10.80;;;16.00;98.30;;;;;;4896410;29;20526;-79
2022/11/10 14:34:31;;;;;;;10.97;10.57;;;16.00;98.90;;;;;;4896405;29;20466;-79
2022/11/10 14:37:01;;;;;;;12.53;11.70;;;16.00;99.00;;;;;;4896253;29;20459;-79
2022/11/10 14:39:31;;;;;;;13.37;12.57;;;16.00;99.50;;;;;;4896607;29;20820;-79
2022/11/10 14:42:01;;;;;;;11.70;11.00;;;16.10;99.60;;;;;;4896774;29;20779;-79
2022/11/10 14:44:30;;;;;;;11.67;11.10;;;16.10;99.70;;;;;;4896648;29;20550;-80
2022/11/10 14:46:58;;;;;;;12.00;11.50;;;16.00;99.90;;;;;;4896571;29;20459;-80
2022/11/10 14:49:26;;;;;;;12.07;11.60;;;15.90;99.90;;;;;;4896088;29;20455;-79
2022/11/10 14:51:59;;;;;;;13.27;12.00;;;15.80;99.90;;;;;;4896327;29;20477;-78
2022/11/10 14:54:27;;;;;;;12.30;11.80;;;15.80;99.90;;;;;;4896338;29;20443;-79
2022/11/10 14:56:55;;;;;;;12.23;11.53;;;15.70;99.90;;;;;;4906149;29;20461;-79
2022/11/10 14:59:24;;;;;;;12.37;11.87;;;15.60;99.90;;;;;;4915165;29;20458;-79
2022/11/10 15:01:54;;;;;;;12.10;11.60;;;15.50;99.90;;;;;;4917665;29;20500;-79
2022/11/10 15:04:26;;;;;;;11.43;10.77;;;15.40;99.90;;;;;;4932761;29;20457;-79
2022/11/10 15:06:54;;;;;;;11.83;11.33;;;15.30;99.90;;;;;;4934000;29;20457;-79
2022/11/10 15:09:27;;;;;;;12.87;11.93;;;15.20;99.90;;;;;;4936383;29;20449;-77
2022/11/10 15:12:06;;;;;;;12.27;11.77;;;15.00;99.90;;;;;;4929182;29;20453;-78
2022/11/10 15:14:41;;;;;;;12.93;12.33;;;14.90;99.90;;;;;;4935628;29;20442;-78
2022/11/10 15:17:09;;;;;;;12.07;11.30;;;14.70;99.90;;;;;;4939337;29;20457;-78
2022/11/10 15:19:38;;;;;;;14.00;13.27;;;14.60;99.90;;;;;;4937037;29;20429;-78
2022/11/10 15:22:06;;;;;;;13.40;12.80;;;14.50;99.90;;;;;;4936034;29;20486;-78
2022/11/10 15:24:33;;;;;;;12.63;11.83;;;14.40;99.90;;;;;;4926202;29;20781;-79
2022/11/10 15:27:00;;;;;;;13.80;12.63;;;14.30;99.90;;;;;;4923256;29;20541;-79
2022/11/10 15:29:29;;;;;;;14.70;13.27;;;14.40;99.90;;;;;;4920682;29;20448;-79
2022/11/10 15:31:58;;;;;;;13.60;12.70;;;14.50;99.90;;;;;;4922839;29;20454;-80
2022/11/10 15:34:32;;;;;;;12.07;11.40;;;14.50;99.90;;;;;;4921480;29;20442;-79
2022/11/10 15:37:23;;;;;;;12.50;11.67;;;14.40;99.90;;;;;;4922560;29;20800;-79
2022/11/10 15:39:50;;;;;;;12.67;11.77;;;14.40;99.90;;;;;;4923365;29;20446;-79
2022/11/10 15:42:20;;;;;;;13.50;12.23;;;14.30;99.90;;;;;;4921623;29;21003;-78
2022/11/10 15:44:47;;;;;;;12.83;12.23;;;14.20;99.90;;;;;;4920951;29;21019;-79
2022/11/10 15:47:18;;;;;;;13.67;12.80;;;14.10;99.90;;;;;;4918663;29;20476;-78
2022/11/10 15:49:45;;;;;;;13.30;12.57;;;14.00;99.90;;;;;;4921381;29;20458;-78
2022/11/10 15:52:18;;;;;;;15.10;13.87;;;13.90;99.90;;;;;;4920873;29;20481;-78
2022/11/10 15:54:45;;;;;;;17.23;15.37;;;13.60;99.90;;;;;;4921436;29;20808;-78
2022/11/10 15:57:13;;;;;;;15.53;14.60;;;13.30;99.90;;;;;;4922838;29;20445;-79
2022/11/10 15:59:40;;;;;;;13.50;13.00;;;13.10;99.90;;;;;;4920095;29;20459;-77
2022/11/10 16:02:17;;;;;;;13.93;12.97;;;12.90;99.90;;;;;;4921315;29;20961;-76
2022/11/10 16:04:44;;;;;;;15.70;14.80;;;12.90;99.90;;;;;;4914998;29;20827;-77
2022/11/10 16:07:11;;;;;;;15.37;14.27;;;12.90;99.90;;;;;;4912249;29;20458;-77
2022/11/10 16:09:37;;;;;;;15.10;13.87;;;12.70;99.90;;;;;;4913237;29;20472;-78
2022/11/10 16:12:04;;;;;;;13.77;12.70;;;12.60;99.90;;;;;;4913093;29;20469;-78
2022/11/10 16:14:31;;;;;;;14.30;13.30;;;12.50;99.90;;;;;;4912655;29;20454;-78
2022/11/10 16:16:58;;;;;;;16.60;15.23;;;12.40;99.90;;;;;;4913464;29;20954;-79
2022/11/10 16:19:26;;;;;;;17.37;15.73;;;12.20;99.90;;;;;;4913148;29;21048;-79
2022/11/10 16:21:53;;;;;;;16.83;15.50;;;12.10;99.90;;;;;;4912821;29;20458;-77
2022/11/10 16:24:20;;;;;;;17.60;16.30;;;12.00;99.90;;;;;;4912795;29;20450;-77
2022/11/10 16:26:46;;;;;;;17.53;16.53;;;11.90;99.90;;;;;;4912503;29;20972;-77
2022/11/10 16:29:15;;;;;;;18.40;17.00;;;11.80;99.90;;;;;;4913117;29;20450;-78
2022/11/10 16:31:41;;;;;;;17.53;16.37;;;11.70;99.90;;;;;;4913222;29;20450;-78
2022/11/10 16:34:13;;;;;;;18.30;17.20;;;11.60;99.90;;;;;;4912856;29;20450;-77
2022/11/10 16:36:42;;;;;;;18.70;17.37;;;11.50;99.90;;;;;;4912847;29;20502;-78
2022/11/10 16:39:12;;;;;;;18.47;17.17;;;11.40;99.90;;;;;;4912938;29;20455;-79
2022/11/10 16:41:40;;;;;;;18.43;16.90;;;11.30;99.90;;;;;;4913046;29;20457;-79
2022/11/10 16:44:11;;;;;;;15.67;14.80;;;11.10;99.90;;;;;;4912584;29;20900;-79
2022/11/10 16:46:39;;;;;;;17.03;15.60;;;11.10;99.90;;;;;;4912564;29;20447;-79
2022/11/10 16:49:17;;;;;;;19.77;18.27;;;11.10;99.90;;;;;;4912783;29;20450;-78
2022/11/10 16:51:45;;;;;;;18.27;17.07;;;10.90;99.90;;;;;;4912714;29;20456;-78
2022/11/10 16:54:12;;;;;;;20.47;17.43;;;10.70;99.90;;;;;;4912632;29;20523;-78
2022/11/10 16:56:39;;;;;;;19.13;17.87;;;10.60;99.90;;;;;;4912283;29;20463;-79
2022/11/10 16:59:06;;;;;;;19.43;17.53;;;10.60;99.90;;;;;;4912286;29;20669;-79
2022/11/10 17:01:35;;;;;;;19.73;18.60;;;10.60;99.90;;;;;;4912068;29;20473;-78
2022/11/10 17:04:07;;;;;;;17.83;16.50;;;10.60;99.90;;;;;;4930977;29;20492;-79
2022/11/10 17:06:34;;;;;;;18.93;17.67;;;10.50;99.90;;;;;;4931729;29;20449;-79
2022/11/10 17:09:07;;;;;;;18.17;17.20;;;10.50;99.90;;;;;;4931491;29;20928;-80
2022/11/10 17:11:34;;;;;;;19.27;17.80;;;10.40;99.90;;;;;;4931766;29;20458;-80
2022/11/10 17:14:01;;;;;;;19.10;17.63;;;10.30;99.90;;;;;;4931336;29;20473;-80
2022/11/10 17:16:31;;;;;;;19.53;17.67;;;10.20;99.90;;;;;;4927500;29;20446;-78
2022/11/10 17:19:00;;;;;;;19.10;17.80;;;10.10;99.90;;;;;;4916985;29;21155;-78
2022/11/10 17:21:30;;;;;;;21.07;18.97;;;10.00;99.90;;;;;;4912398;29;20553;-80
2022/11/10 17:23:57;;;;;;;19.63;18.10;;;10.00;99.90;;;;;;4913100;29;20489;-79
2022/11/10 17:26:25;;;;;;;20.17;18.27;;;10.00;99.90;;;;;;4912592;29;20462;-79
2022/11/10 17:28:52;;;;;;;18.70;16.90;;;10.00;99.90;;;;;;4916618;29;20454;-79
2022/11/10 17:31:19;;;;;;;21.13;19.47;;;10.10;99.90;;;;;;4915873;29;20784;-79
2022/11/10 17:33:45;;;;;;;19.10;17.10;;;10.10;99.90;;;;;;4915999;29;20454;-79
2022/11/10 17:36:14;;;;;;;22.17;19.77;;;10.00;99.90;;;;;;4915976;29;20461;-79
2022/11/10 17:38:42;;;;;;;22.53;18.23;;;10.10;99.90;;;;;;4916288;29;20510;-79
2022/11/10 17:41:14;;;;;;;19.10;17.23;;;10.00;99.90;;;;;;4916149;29;20453;-78
2022/11/10 17:43:43;;;;;;;21.57;19.77;;;10.00;99.90;;;;;;4916089;29;20541;-78
2022/11/10 17:46:09;;;;;;;18.70;17.23;;;10.00;99.90;;;;;;4916032;29;20450;-79
2022/11/10 17:48:36;;;;;;;20.20;18.73;;;10.00;99.90;;;;;;4927447;29;20463;-78